Time;durP1;ratioP1;P1;durP2;ratioP2;P2;SDS_P1;SDS_P2;PMS_P1;PMS_P2;Temp;Humidity;BMP_temperature;BMP_pressure;BME280_temperature;BME280_humidity;BME280_pressure;Samples;Min_cycle;Max_cycle;Signal;HPM_P1;HPM_P2
2022/04/27 00:01:19;;;;;;;27.70;21.80;;;;;;;9.73;65.31;100381.61;105921;1276;138395;-87
2022/04/27 00:03:51;;;;;;;26.70;20.80;;;;;;;9.72;65.27;100381.66;106049;1276;107477;-88
2022/04/27 00:06:23;;;;;;;26.70;19.90;;;;;;;9.71;65.39;100382.36;105884;1276;138481;-86
2022/04/27 00:08:55;;;;;;;27.20;20.70;;;;;;;9.69;65.32;100380.84;105986;1276;97774;-85
2022/04/27 00:11:27;;;;;;;26.00;19.60;;;;;;;9.66;65.34;100381.24;105851;1277;139300;-86
2022/04/27 00:14:00;;;;;;;24.70;19.30;;;;;;;9.64;65.33;100381.31;106033;1276;109308;-85
2022/04/27 00:16:33;;;;;;;24.90;20.10;;;;;;;9.63;65.46;100383.44;105873;1279;108831;-85
2022/04/27 00:19:05;;;;;;;27.30;21.10;;;;;;;9.62;65.52;100382.06;105964;1276;140049;-85
2022/04/27 00:21:37;;;;;;;28.20;21.80;;;;;;;9.60;65.45;100388.54;106017;1276;97940;-85
2022/04/27 00:24:09;;;;;;;27.30;22.00;;;;;;;9.56;65.50;100388.99;105934;1276;138035;-84
2022/04/27 00:26:41;;;;;;;25.00;21.20;;;;;;;9.52;65.45;100388.40;106177;1276;109464;-84
2022/04/27 00:29:14;;;;;;;28.90;22.70;;;;;;;9.47;65.51;100390.09;107287;1276;137322;-85
2022/04/27 00:31:46;;;;;;;31.40;22.60;;;;;;;9.39;65.48;100395.86;106137;1276;97943;-85
2022/04/27 00:34:18;;;;;;;26.20;20.20;;;;;;;9.31;65.63;100396.23;106001;1276;97929;-85
2022/04/27 00:36:50;;;;;;;32.20;21.10;;;;;;;9.23;65.78;100394.00;105903;1276;139363;-84
2022/04/27 00:39:22;;;;;;;29.00;20.70;;;;;;;9.16;65.88;100394.67;105978;1276;108721;-85
2022/04/27 00:42:01;;;;;;;26.90;19.90;;;;;;;9.10;66.03;100394.13;105814;1277;139002;-84
2022/04/27 00:44:36;;;;;;;28.50;20.40;;;;;;;9.04;66.11;100393.58;106055;1276;97855;-85
2022/04/27 00:47:09;;;;;;;28.20;21.50;;;;;;;8.99;66.21;100394.21;105951;1276;139195;-84
2022/04/27 00:49:44;;;;;;;28.20;21.90;;;;;;;8.96;66.47;100396.35;105812;1279;111492;-85
2022/04/27 00:52:17;;;;;;;32.50;23.60;;;;;;;8.95;66.58;100396.91;106019;1276;107840;-85
2022/04/27 00:54:52;;;;;;;27.20;22.10;;;;;;;8.89;66.57;100398.25;105980;1276;138299;-86
2022/04/27 00:57:25;;;;;;;28.90;22.60;;;;;;;8.81;66.68;100400.52;106038;1276;97856;-86
2022/04/27 00:59:58;;;;;;;30.20;22.50;;;;;;;8.73;66.78;100399.81;105825;1276;138671;-86
2022/04/27 01:02:30;;;;;;;28.50;22.00;;;;;;;8.67;67.03;100397.02;105982;1276;111543;-86
2022/04/27 01:05:04;;;;;;;30.80;22.50;;;;;;;8.61;67.15;100399.06;105883;1278;107482;-85
2022/04/27 01:07:36;;;;;;;29.50;22.70;;;;;;;8.56;67.21;100399.50;105967;1276;138980;-84
2022/04/27 01:10:11;;;;;;;27.80;21.50;;;;;;;8.51;67.51;100402.05;105980;1276;97841;-85
2022/04/27 01:12:43;;;;;;;27.60;21.50;;;;;;;8.50;67.60;100403.80;105967;1276;139519;-84
2022/04/27 01:15:33;;;;;;;30.40;22.50;;;;;;;8.49;67.77;100404.16;107503;1277;112473;-86
2022/04/27 01:18:08;;;;;;;32.30;24.60;;;;;;;8.48;67.89;100406.10;107301;1276;138992;-86
2022/04/27 01:20:44;;;;;;;30.80;24.30;;;;;;;8.43;67.88;100404.80;106040;1277;107008;-85
2022/04/27 01:23:18;;;;;;;33.10;25.40;;;;;;;8.41;68.10;100407.27;105960;1276;138369;-81
2022/04/27 01:25:54;;;;;;;33.70;25.10;;;;;;;8.39;68.09;100407.14;105958;1277;97766;-84
2022/04/27 01:28:29;;;;;;;34.70;25.60;;;;;;;8.37;68.22;100407.70;106062;1276;111528;-84
2022/04/27 01:31:04;;;;;;;33.50;24.80;;;;;;;8.33;68.26;100411.07;105848;1276;138232;-83
2022/04/27 01:33:36;;;;;;;30.70;23.60;;;;;;;8.27;68.39;100412.91;107345;1277;107771;-85
2022/04/27 01:36:10;;;;;;;32.80;23.70;;;;;;;8.26;68.54;100416.91;107178;1276;139191;-85
2022/04/27 01:38:44;;;;;;;32.70;23.80;;;;;;;8.25;68.65;100416.39;106055;1277;97688;-87
2022/04/27 01:41:16;;;;;;;35.00;23.90;;;;;;;8.25;68.80;100419.86;105900;1276;138637;-85
2022/04/27 01:43:48;;;;;;;32.10;24.70;;;;;;;8.28;68.78;100423.13;106019;1278;109239;-85
2022/04/27 01:46:21;;;;;;;33.50;24.60;;;;;;;8.29;68.83;100422.55;106046;1276;108873;-86
2022/04/27 01:48:53;;;;;;;34.30;25.50;;;;;;;8.29;68.80;100425.52;105893;1277;138148;-86
2022/04/27 01:54:18;;;;;;;35.50;27.20;;;;;;;8.25;68.91;100425.08;105903;1276;138794;-85
2022/04/27 01:56:53;;;;;;;36.00;26.20;;;;;;;8.20;69.06;100428.27;105928;1277;108880;-86
2022/04/27 01:59:25;;;;;;;32.00;25.40;;;;;;;8.18;69.10;100429.55;105897;1276;138891;-86
2022/04/27 02:01:58;;;;;;;34.90;24.60;;;;;;;8.16;69.17;100430.78;106015;1276;97845;-85
2022/04/27 02:04:30;;;;;;;31.90;24.70;;;;;;;8.15;69.25;100429.95;106018;1276;97836;-87
2022/04/27 02:07:04;;;;;;;28.60;22.10;;;;;;;8.13;69.16;100426.00;105846;1276;138350;-86
2022/04/27 02:09:36;;;;;;;34.30;25.40;;;;;;;8.11;69.37;100427.95;105988;1277;106478;-86
2022/04/27 02:12:10;;;;;;;35.90;27.10;;;;;;;8.10;69.37;100428.50;105886;1277;138330;-86
2022/04/27 02:14:42;;;;;;;38.80;27.40;;;;;;;8.11;69.50;100428.81;107282;1277;95810;-85
2022/04/27 02:17:14;;;;;;;37.50;28.10;;;;;;;8.11;69.40;100430.38;105961;1277;137128;-85
2022/04/27 02:19:46;;;;;;;37.70;29.40;;;;;;;8.08;69.49;100427.30;106125;1276;111677;-84
2022/04/27 02:22:18;;;;;;;41.10;30.60;;;;;;;8.05;69.60;100428.90;105903;1277;146103;-84
2022/04/27 02:24:51;;;;;;;42.00;29.70;;;;;;;8.01;69.56;100433.31;105924;1276;139623;-85
2022/04/27 02:27:23;;;;;;;37.70;27.50;;;;;;;7.96;69.72;100430.32;106021;1277;97871;-85
2022/04/27 02:29:55;;;;;;;36.70;26.20;;;;;;;7.89;69.57;100430.59;105837;1276;138859;-85
2022/04/27 02:32:29;;;;;;;35.90;26.90;;;;;;;7.85;69.65;100430.84;105834;1278;111395;-85
2022/04/27 02:35:01;;;;;;;35.00;25.60;;;;;;;7.79;69.71;100430.61;105931;1277;108946;-85
2022/04/27 02:37:34;;;;;;;36.50;27.30;;;;;;;7.75;69.87;100431.56;105916;1277;138615;-86
2022/04/27 02:40:08;;;;;;;39.90;28.50;;;;;;;7.71;70.01;100427.10;105866;1277;97911;-88
2022/04/27 02:42:40;;;;;;;39.50;28.80;;;;;;;7.68;70.09;100429.58;107312;1276;138201;-86
2022/04/27 02:45:14;;;;;;;37.10;27.80;;;;;;;7.64;70.15;100430.36;106726;1277;112666;-86
2022/04/27 02:47:46;;;;;;;38.70;28.90;;;;;;;7.61;70.18;100431.45;105816;1276;140045;-87
2022/04/27 02:53:08;;;;;;;39.80;29.60;;;;;;;7.54;70.32;100433.47;105905;1278;97860;-85
2022/04/27 02:55:41;;;;;;;41.40;29.80;;;;;;;7.49;70.42;100429.73;105909;1277;138672;-85
2022/04/27 02:58:13;;;;;;;37.40;26.50;;;;;;;7.47;70.49;100435.31;106016;1276;112624;-85
2022/04/27 03:00:45;;;;;;;36.50;27.30;;;;;;;7.45;70.68;100436.55;105766;1277;138971;-84
2022/04/27 03:03:20;;;;;;;37.90;28.20;;;;;;;7.44;70.81;100439.52;106082;1276;107219;-84
2022/04/27 03:05:52;;;;;;;40.50;28.50;;;;;;;7.46;70.80;100437.40;105883;1277;137445;-84
2022/04/27 03:08:24;;;;;;;40.30;29.20;;;;;;;7.44;70.83;100438.81;106074;1276;97714;-85
2022/04/27 03:10:57;;;;;;;40.20;29.20;;;;;;;7.44;70.87;100442.64;106000;1276;112381;-85
2022/04/27 03:13:37;;;;;;;41.20;30.30;;;;;;;7.41;70.87;100444.60;105831;1276;139105;-86
2022/04/27 03:16:16;;;;;;;41.30;30.20;;;;;;;7.38;70.85;100445.50;105929;1275;107925;-84
2022/04/27 03:18:48;;;;;;;42.10;30.20;;;;;;;7.36;70.97;100448.64;105880;1276;138446;-83
2022/04/27 03:21:20;;;;;;;40.10;27.80;;;;;;;7.34;71.03;100450.39;106144;1276;98071;-84
2022/04/27 03:23:52;;;;;;;37.00;28.70;;;;;;;7.33;71.24;100452.48;105922;1276;139091;-84
2022/04/27 03:26:25;;;;;;;36.90;26.70;;;;;;;7.33;71.08;100459.06;105999;1276;108552;-84
2022/04/27 03:28:57;;;;;;;37.50;27.40;;;;;;;7.34;71.30;100464.41;105934;1277;108861;-85
2022/04/27 03:31:29;;;;;;;38.40;27.40;;;;;;;7.37;71.14;100466.11;105840;1276;139864;-84
2022/04/27 03:34:02;;;;;;;38.10;28.00;;;;;;;7.39;71.34;100464.85;107610;1276;96092;-85
2022/04/27 03:36:35;;;;;;;38.60;28.30;;;;;;;7.42;71.21;100466.36;106246;1277;138049;-84
2022/04/27 03:39:07;;;;;;;43.70;30.10;;;;;;;7.44;71.11;100465.65;105972;1277;109085;-83
2022/04/27 03:41:59;;;;;;;39.30;27.90;;;;;;;7.43;71.09;100469.28;105814;1276;139385;-84
2022/04/27 03:44:31;;;;;;;35.90;27.30;;;;;;;7.44;71.20;100473.59;106033;1276;97865;-85
2022/04/27 03:47:06;;;;;;;35.00;24.40;;;;;;;7.48;71.11;100473.02;106149;1276;97809;-86
2022/04/27 03:49:38;;;;;;;34.60;25.00;;;;;;;7.49;71.21;100474.56;107449;1276;138622;-85
2022/04/27 03:52:11;;;;;;;31.90;23.90;;;;;;;7.51;71.24;100479.18;107043;1276;107628;-86
2022/04/27 03:54:43;;;;;;;35.50;23.60;;;;;;;7.57;71.12;100481.88;105994;1276;138549;-85
2022/04/27 03:57:15;;;;;;;33.30;24.00;;;;;;;7.62;70.98;100479.53;106059;1276;97921;-85
2022/04/27 03:59:47;;;;;;;32.70;24.00;;;;;;;7.68;70.93;100484.96;105878;1277;139633;-84
2022/04/27 04:02:19;;;;;;;36.80;25.30;;;;;;;7.73;70.80;100487.33;105922;1276;112575;-84
2022/04/27 04:04:51;;;;;;;34.10;23.70;;;;;;;7.77;70.73;100493.48;105976;1277;109261;-84
2022/04/27 04:07:23;;;;;;;35.50;24.40;;;;;;;7.81;70.52;100495.98;105804;1277;138399;-84
2022/04/27 04:09:59;;;;;;;31.40;22.80;;;;;;;7.85;70.57;100502.52;106031;1276;97832;-82
2022/04/27 04:12:31;;;;;;;33.30;23.40;;;;;;;7.87;70.37;100508.52;105821;1277;138330;-84
2022/04/27 04:15:22;;;;;;;30.00;21.70;;;;;;;7.90;70.34;100509.70;106086;1276;112220;-84
2022/04/27 04:18:23;;;;;;;30.10;21.80;;;;;;;7.96;70.22;100510.83;105818;1276;138886;-83
2022/04/27 04:21:14;;;;;;;30.00;21.40;;;;;;;8.01;70.03;100514.02;107558;1275;109406;-85
2022/04/27 04:23:53;;;;;;;29.50;21.60;;;;;;;8.14;70.28;100515.36;106151;1276;138680;-84
2022/04/27 04:29:16;;;;;;;28.10;20.50;;;;;;;8.40;69.90;100517.33;106080;1276;110886;-84
2022/04/27 04:31:48;;;;;;;28.70;20.90;;;;;;;8.56;69.81;100521.70;105894;1277;138238;-85
2022/04/27 04:34:40;;;;;;;27.90;20.80;;;;;;;8.73;69.57;100523.95;105966;1276;109029;-85
2022/04/27 04:37:16;;;;;;;27.10;20.20;;;;;;;8.89;69.45;100525.38;105923;1276;138330;-86
2022/04/27 04:39:49;;;;;;;29.40;20.60;;;;;;;9.25;69.35;100528.56;105959;1277;97865;-85
2022/04/27 04:42:28;;;;;;;27.40;20.80;;;;;;;9.92;69.20;100525.45;105910;1276;138108;-85
2022/04/27 04:45:00;;;;;;;23.90;18.50;;;;;;;10.45;68.84;100530.83;105981;1276;108808;-84
2022/04/27 04:48:09;;;;;;;25.20;18.80;;;;;;;12.13;67.26;100533.20;105116;1284;138721;-82
2022/04/27 04:51:00;;;;;;;23.90;16.80;;;;;;;14.22;64.36;100529.59;106096;1276;97856;-81
2022/04/27 04:53:38;;;;;;;24.30;16.10;;;;;;;15.95;61.23;100525.10;107443;1276;138334;-81
2022/04/27 04:56:30;;;;;;;23.10;16.50;;;;;;;17.74;58.34;100514.95;107270;1276;111725;-83
2022/04/27 04:59:22;;;;;;;21.00;16.60;;;;;;;19.39;54.93;100518.17;106034;1276;108998;-82
2022/04/27 05:02:19;;;;;;;23.50;16.20;;;;;;;20.85;52.31;100514.82;105981;1276;107150;-81
2022/04/27 05:05:17;;;;;;;20.10;15.40;;;;;;;22.13;49.31;100518.02;106325;1276;98376;-81
2022/04/27 05:08:07;;;;;;;24.90;15.70;;;;;;;23.03;47.41;100521.46;106928;1277;139995;-82
2022/04/27 05:10:51;;;;;;;20.00;15.00;;;;;;;24.19;45.42;100517.43;106003;1276;112500;-80
2022/04/27 05:13:42;;;;;;;16.20;14.30;;;;;;;25.30;43.50;100520.98;105859;1276;138330;-79
2022/04/27 05:16:43;;;;;;;18.80;13.30;;;;;;;26.24;41.46;100523.64;105493;1277;109011;-78
2022/04/27 05:19:45;;;;;;;15.00;13.40;;;;;;;27.10;39.14;100532.92;105385;1276;138569;-79
2022/04/27 05:22:41;;;;;;;19.20;13.80;;;;;;;27.70;37.84;100536.83;105938;1276;97884;-77
2022/04/27 05:25:48;;;;;;;16.00;13.30;;;;;;;28.40;36.53;100536.52;105426;1282;138649;-78
2022/04/27 05:32:04;;;;;;;16.00;12.50;;;;;;;29.77;33.91;100537.42;106650;1282;141259;-78
2022/04/27 05:35:02;;;;;;;17.90;12.60;;;;;;;30.19;32.81;100541.05;107187;1276;96900;-78
2022/04/27 05:37:55;;;;;;;14.20;11.30;;;;;;;30.41;31.87;100540.33;105678;1276;138367;-77
2022/04/27 05:40:46;;;;;;;12.50;10.90;;;;;;;30.84;30.77;100545.89;106095;1276;112462;-77
2022/04/27 05:43:44;;;;;;;15.40;11.00;;;;;;;31.40;29.64;100553.16;107216;1277;138299;-77
2022/04/27 05:46:42;;;;;;;15.50;9.80;;;;;;;31.96;29.38;100559.19;107191;1276;108645;-78
2022/04/27 05:49:28;;;;;;;14.00;9.60;;;;;;;32.60;28.59;100555.37;107323;1275;139448;-77
2022/04/27 05:52:13;;;;;;;13.30;9.10;;;;;;;33.16;27.92;100560.16;107423;1276;96461;-77
2022/04/27 05:54:52;;;;;;;13.20;9.60;;;;;;;33.66;27.12;100561.49;107344;1275;139022;-77
2022/04/27 05:57:36;;;;;;;15.10;8.70;;;;;;;34.04;26.24;100561.23;107426;1276;109688;-78
2022/04/27 06:00:27;;;;;;;11.40;9.10;;;;;;;34.41;25.39;100566.58;107309;1275;139632;-75
2022/04/27 06:03:13;;;;;;;13.90;8.60;;;;;;;34.92;25.04;100570.80;106081;1276;97845;-78
2022/04/27 06:05:46;;;;;;;13.30;8.80;;;;;;;35.29;24.23;100571.54;106048;1277;97830;-77
2022/04/27 06:08:21;;;;;;;15.20;8.20;;;;;;;35.61;23.89;100577.48;107414;1276;138475;-77
2022/04/27 06:11:01;;;;;;;13.40;8.40;;;;;;;35.89;23.61;100580.07;107491;1276;108955;-76
2022/04/27 06:13:35;;;;;;;11.30;8.30;;;;;;;36.22;22.92;100583.91;107270;1276;138144;-76
2022/04/27 06:16:34;;;;;;;10.80;7.90;;;;;;;36.56;22.31;100585.77;107203;1276;95937;-76
2022/04/27 06:19:14;;;;;;;9.90;8.00;;;;;;;36.71;21.75;100584.27;107210;1276;138313;-76
2022/04/27 06:21:46;;;;;;;11.00;7.90;;;;;;;36.71;21.26;100587.70;107290;1277;111562;-77
2022/04/27 06:24:19;;;;;;;9.90;8.60;;;;;;;36.73;20.87;100588.11;107349;1276;138357;-76
2022/04/27 06:26:54;;;;;;;11.30;8.20;;;;;;;36.90;20.89;100589.57;107413;1276;109010;-75
2022/04/27 06:29:26;;;;;;;13.40;8.30;;;;;;;37.00;20.38;100594.98;107068;1276;97840;-74
2022/04/27 06:31:57;;;;;;;10.20;7.90;;;;;;;37.23;20.59;100595.63;105872;1276;138139;-77
2022/04/27 06:34:31;;;;;;;10.20;7.90;;;;;;;37.59;20.40;100592.42;105932;1276;112538;-76
2022/04/27 06:37:04;;;;;;;10.30;7.60;;;;;;;37.77;20.02;100593.05;107242;1276;139312;-78
2022/04/27 06:39:40;;;;;;;12.50;7.90;;;;;;;38.06;19.71;100596.42;107324;1276;108778;-77
2022/04/27 06:42:12;;;;;;;11.90;7.90;;;;;;;38.11;19.24;100597.02;107389;1276;138804;-78
2022/04/27 06:45:04;;;;;;;12.40;7.50;;;;;;;38.36;19.41;100599.56;107476;1275;97651;-78
2022/04/27 06:47:54;;;;;;;9.70;7.30;;;;;;;38.37;18.91;100599.30;107514;1276;112968;-78
2022/04/27 06:50:44;;;;;;;9.80;6.70;;;;;;;38.48;18.35;100604.71;106585;1276;137940;-77
2022/04/27 06:53:34;;;;;;;10.80;7.10;;;;;;;38.82;18.31;100602.48;106001;1276;108506;-77
2022/04/27 06:56:26;;;;;;;6.70;5.90;;;;;;;39.04;18.02;100603.96;105939;1276;138558;-76
2022/04/27 06:59:24;;;;;;;9.50;6.40;;;;;;;39.18;17.87;100603.05;106039;1276;97847;-76
2022/04/27 07:02:01;;;;;;;10.10;6.30;;;;;;;39.34;17.47;100604.89;105977;1276;137928;-76
2022/04/27 07:04:35;;;;;;;7.80;5.70;;;;;;;39.47;17.51;100603.08;106031;1276;108443;-77
2022/04/27 07:07:07;;;;;;;10.00;6.40;;;;;;;39.81;17.38;100608.34;105818;1276;138220;-76
2022/04/27 07:09:40;;;;;;;9.90;5.90;;;;;;;39.81;16.92;100612.11;105956;1276;100888;-75
2022/04/27 07:12:13;;;;;;;8.90;5.80;;;;;;;39.79;16.81;100609.79;105986;1276;97864;-75
2022/04/27 07:14:46;;;;;;;9.40;5.70;;;;;;;39.93;16.71;100614.52;105770;1276;138897;-77
2022/04/27 07:17:18;;;;;;;6.70;5.20;;;;;;;39.99;16.45;100613.47;105999;1276;108518;-77
2022/04/27 07:19:50;;;;;;;11.10;5.30;;;;;;;39.83;16.10;100615.05;105973;1276;138136;-77
2022/04/27 07:22:21;;;;;;;6.70;5.70;;;;;;;39.88;16.13;100616.23;106045;1276;97939;-75
2022/04/27 07:24:53;;;;;;;12.60;5.00;;;;;;;39.92;16.09;100616.92;105947;1276;139164;-77
2022/04/27 07:27:27;;;;;;;11.80;5.20;;;;;;;40.03;15.89;100619.64;106000;1276;112527;-67
2022/04/27 07:29:59;;;;;;;7.70;4.80;;;;;;;40.04;16.12;100619.58;106070;1276;108542;-68
2022/04/27 07:32:31;;;;;;;7.10;5.60;;;;;;;40.15;16.10;100623.73;105828;1276;138529;-69
2022/04/27 07:35:03;;;;;;;6.20;4.90;;;;;;;40.01;15.69;100628.55;105939;1276;97977;-68
2022/04/27 07:37:39;;;;;;;5.80;5.00;;;;;;;39.81;15.61;100626.95;105867;1276;137907;-69
2022/04/27 07:40:14;;;;;;;6.20;5.00;;;;;;;39.78;15.62;100627.23;107419;1277;112586;-68
2022/04/27 07:42:45;;;;;;;9.60;4.60;;;;;;;39.75;15.69;100627.89;107335;1275;138362;-68
2022/04/27 07:45:18;;;;;;;9.30;5.00;;;;;;;39.92;15.99;100634.23;107293;1276;109174;-69
2022/04/27 07:47:50;;;;;;;8.10;4.60;;;;;;;40.35;15.85;100634.50;106884;1276;97957;-68
2022/04/27 07:50:22;;;;;;;7.40;4.60;;;;;;;40.66;15.80;100635.72;106055;1274;137940;-68
2022/04/27 07:52:56;;;;;;;7.90;4.10;;;;;;;40.64;15.15;100634.92;105984;1276;113063;-69
2022/04/27 07:55:29;;;;;;;9.70;4.60;;;;;;;40.45;15.22;100635.43;105869;1276;138073;-69
2022/04/27 07:58:01;;;;;;;6.10;4.20;;;;;;;40.37;15.08;100637.45;106087;1276;107829;-69
2022/04/27 08:00:33;;;;;;;8.60;6.00;;;;;;;40.06;15.06;100640.05;105861;1276;139602;-69
2022/04/27 08:03:05;;;;;;;6.40;4.10;;;;;;;39.58;14.95;100640.88;107390;1276;96081;-69
2022/04/27 08:05:37;;;;;;;4.80;4.30;;;;;;;39.60;15.27;100642.11;105971;1275;112373;-69
2022/04/27 08:08:09;;;;;;;6.50;4.40;;;;;;;39.62;15.07;100640.77;106050;1276;138064;-69
2022/04/27 08:10:42;;;;;;;6.10;4.50;;;;;;;39.27;15.09;100644.80;105998;1276;108937;-68
2022/04/27 08:13:15;;;;;;;6.10;4.20;;;;;;;39.12;15.09;100646.98;105775;1276;138464;-69
2022/04/27 08:15:46;;;;;;;8.50;4.50;;;;;;;38.93;15.29;100644.05;107492;1275;95978;-70
2022/04/27 08:18:20;;;;;;;9.90;4.40;;;;;;;38.66;14.85;100647.65;107399;1276;111443;-70
2022/04/27 08:23:41;;;;;;;7.50;4.10;;;;;;;38.13;15.41;100647.12;105964;1276;109811;-70
2022/04/27 08:26:14;;;;;;;4.20;3.60;;;;;;;38.13;15.41;100647.75;105878;1277;138070;-69
2022/04/27 08:28:46;;;;;;;6.10;3.30;;;;;;;38.03;15.17;100642.69;105962;1276;97793;-68
2022/04/27 08:31:20;;;;;;;6.80;3.40;;;;;;;37.73;15.02;100649.65;105871;1276;137877;-68
2022/04/27 08:33:52;;;;;;;4.90;3.20;;;;;;;37.51;15.54;100650.27;105954;1276;108451;-67
2022/04/27 08:36:24;;;;;;;6.30;3.40;;;;;;;37.73;15.77;100652.49;105990;1276;108636;-69
2022/04/27 08:39:02;;;;;;;10.60;3.60;;;;;;;37.69;15.08;100648.91;105822;1276;137952;-68
2022/04/27 08:41:34;;;;;;;6.60;3.70;;;;;;;37.46;15.51;100651.05;106010;1276;97848;-68
2022/04/27 08:44:07;;;;;;;7.10;4.40;;;;;;;37.38;15.32;100651.13;105988;1276;137818;-68
2022/04/27 08:46:42;;;;;;;6.20;3.80;;;;;;;37.24;15.29;100654.50;107436;1276;107786;-69
2022/04/27 08:49:15;;;;;;;4.80;3.10;;;;;;;37.02;15.17;100656.52;107195;1276;139326;-68
2022/04/27 08:51:48;;;;;;;5.00;3.40;;;;;;;36.64;14.82;100659.11;106044;1276;97920;-68
2022/04/27 08:54:21;;;;;;;10.10;3.80;;;;;;;36.28;15.23;100659.58;106073;1276;97882;-68
2022/04/27 08:56:53;;;;;;;5.00;3.70;;;;;;;36.01;15.55;100655.06;105871;1276;137848;-69
2022/04/27 08:59:25;;;;;;;4.40;3.40;;;;;;;35.88;15.23;100655.64;105993;1276;108975;-67
2022/04/27 09:01:57;;;;;;;6.20;2.90;;;;;;;35.49;15.04;100661.73;105794;1276;138284;-68
2022/04/27 09:04:30;;;;;;;4.70;2.90;;;;;;;35.22;15.56;100656.48;106833;1276;97718;-66
2022/04/27 09:07:19;;;;;;;3.80;2.70;;;;;;;35.08;15.95;100652.77;107388;1276;137949;-67
2022/04/27 09:09:51;;;;;;;8.10;2.80;;;;;;;35.20;16.33;100655.59;107454;1274;112741;-69
2022/04/27 09:12:22;;;;;;;2.80;2.40;;;;;;;34.83;14.94;100654.96;107451;1276;107787;-69
2022/04/27 09:14:58;;;;;;;5.10;2.50;;;;;;;34.44;15.66;100652.70;107360;1275;137814;-70
2022/04/27 09:23:22;;;;;;;3.30;2.50;;;;;;;35.10;15.84;100656.63;107394;1277;112443;-68
2022/04/27 09:25:56;;;;;;;5.70;2.40;;;;;;;35.08;15.80;100653.02;107360;1275;138337;-68
2022/04/27 09:28:36;;;;;;;3.20;2.30;;;;;;;35.35;15.58;100650.89;107436;1276;107699;-68
2022/04/27 09:31:07;;;;;;;2.90;2.10;;;;;;;35.50;15.35;100659.08;107189;1276;138336;-68
2022/04/27 09:33:40;;;;;;;5.30;2.30;;;;;;;35.23;15.28;100657.58;106324;1276;97835;-69
2022/04/27 09:36:23;;;;;;;3.90;2.40;;;;;;;34.46;15.21;100660.20;106065;1276;112467;-68
2022/04/27 09:38:58;;;;;;;6.20;2.70;;;;;;;33.44;15.92;100663.36;105957;1276;137929;-69
2022/04/27 09:41:42;;;;;;;4.90;2.40;;;;;;;32.45;15.90;100668.09;105846;1276;108822;-69
2022/04/27 09:44:29;;;;;;;5.30;2.40;;;;;;;31.39;16.08;100666.90;105815;1276;138058;-69
2022/04/27 09:47:03;;;;;;;4.00;2.40;;;;;;;30.44;16.57;100665.83;105933;1276;97832;-67
2022/04/27 09:49:36;;;;;;;8.20;2.70;;;;;;;29.72;17.06;100667.04;107287;1276;137829;-68
2022/04/27 09:52:09;;;;;;;4.60;2.70;;;;;;;29.11;17.30;100670.10;107455;1276;110858;-68
2022/04/27 09:54:45;;;;;;;4.20;2.80;;;;;;;28.42;17.89;100674.05;107364;1275;139365;-68
2022/04/27 09:57:19;;;;;;;4.30;2.50;;;;;;;27.80;18.21;100677.11;107448;1276;96235;-69
2022/04/27 09:59:51;;;;;;;3.80;2.20;;;;;;;27.26;18.45;100675.02;107368;1277;95845;-69
2022/04/27 10:02:30;;;;;;;3.50;2.50;;;;;;;26.83;18.81;100677.00;105820;1276;138001;-69
2022/04/27 10:05:03;;;;;;;3.90;2.20;;;;;;;26.41;19.27;100674.42;106022;1276;108687;-69
2022/04/27 10:07:36;;;;;;;4.80;2.40;;;;;;;26.36;19.98;100675.30;107334;1275;139719;-69
2022/04/27 10:10:11;;;;;;;3.40;2.30;;;;;;;26.95;20.39;100671.27;106116;1276;97863;-70
2022/04/27 10:12:42;;;;;;;5.00;2.50;;;;;;;27.25;19.51;100672.33;106174;1276;138362;-69
2022/04/27 10:15:14;;;;;;;6.40;2.50;;;;;;;26.94;19.25;100673.08;105977;1276;110383;-70
2022/04/27 10:17:46;;;;;;;3.20;2.40;;;;;;;26.52;19.78;100677.57;106021;1276;109101;-69
2022/04/27 10:20:30;;;;;;;5.10;2.00;;;;;;;26.24;20.01;100677.78;105883;1276;139118;-69
2022/04/27 10:23:28;;;;;;;3.50;2.00;;;;;;;25.96;19.97;100676.20;105969;1276;97859;-69
2022/04/27 10:26:14;;;;;;;3.00;2.00;;;;;;;25.71;20.23;100677.58;105891;1276;137883;-69
2022/04/27 10:28:56;;;;;;;8.70;2.20;;;;;;;25.87;19.98;100677.07;105971;1276;112355;-70
2022/04/27 10:32:02;;;;;;;2.70;2.00;;;;;;;26.23;19.39;100675.25;105857;1276;138713;-70
2022/04/27 10:34:35;;;;;;;5.80;2.40;;;;;;;26.82;19.48;100679.20;105967;1276;107160;-70
2022/04/27 10:37:06;;;;;;;4.50;2.00;;;;;;;27.38;19.31;100677.33;105901;1276;138448;-69
2022/04/27 10:39:43;;;;;;;4.40;2.20;;;;;;;27.89;19.07;100677.77;105967;1276;97715;-67
2022/04/27 10:42:32;;;;;;;3.60;2.20;;;;;;;28.40;19.06;100673.33;106002;1276;112684;-68
2022/04/27 10:45:12;;;;;;;8.00;2.70;;;;;;;28.78;19.27;100680.23;107292;1276;138443;-68
2022/04/27 10:47:44;;;;;;;3.10;2.60;;;;;;;28.97;19.05;100673.52;107510;1276;106644;-69
2022/04/27 10:50:31;;;;;;;4.60;2.30;;;;;;;28.74;18.59;100676.54;107120;1276;138136;-68
2022/04/27 10:56:03;;;;;;;9.40;2.40;;;;;;;28.00;19.00;100673.25;102802;1310;636397;-68
2022/04/27 10:58:42;;;;;;;5.50;2.40;;;;;;;27.34;19.34;100676.42;105595;1283;95102;-68
2022/04/27 11:01:20;;;;;;;2.90;2.20;;;;;;;26.68;19.67;100678.92;105416;1283;137574;-67
2022/04/27 11:04:11;;;;;;;6.00;2.50;;;;;;;26.05;19.93;100680.23;106147;1283;107035;-69
2022/04/27 11:07:22;;;;;;;6.40;2.70;;;;;;;25.43;20.69;100678.95;105389;1284;136998;-67
2022/04/27 11:10:17;;;;;;;2.60;2.20;;;;;;;24.87;21.59;100687.33;105438;1284;275094;-67
2022/04/27 11:12:52;;;;;;;3.10;2.10;;;;;;;24.40;21.38;100692.19;105401;1284;137376;-68
2022/04/27 11:15:25;;;;;;;3.90;2.50;;;;;;;24.02;21.67;100694.40;105788;1281;94809;-68
2022/04/27 11:18:03;;;;;;;7.10;2.30;;;;;;;23.59;22.12;100689.70;105703;1281;108384;-69
2022/04/27 11:20:37;;;;;;;3.50;2.10;;;;;;;23.24;22.26;100690.50;106073;1272;137018;-68
2022/04/27 11:23:21;;;;;;;3.50;2.20;;;;;;;22.88;22.82;100689.02;106129;1274;108954;-68
2022/04/27 11:25:54;;;;;;;3.20;2.20;;;;;;;22.55;22.94;100694.33;106812;1272;137177;-68
2022/04/27 11:28:27;;;;;;;6.60;2.20;;;;;;;22.27;22.92;100689.89;107723;1272;93301;-69
2022/04/27 11:30:59;;;;;;;3.90;2.40;;;;;;;21.98;23.34;100690.04;107214;1271;137177;-79
2022/04/27 11:33:31;;;;;;;5.10;2.70;;;;;;;21.72;23.36;100691.03;106203;1273;107757;-81
2022/04/27 11:36:03;;;;;;;4.90;2.40;;;;;;;21.47;23.76;100696.53;106209;1271;108288;-79
2022/04/27 11:38:38;;;;;;;6.20;3.00;;;;;;;21.21;23.79;100696.77;107681;1273;137710;-80
2022/04/27 11:41:18;;;;;;;6.60;2.90;;;;;;;20.96;24.02;100692.98;107715;1273;94019;-79
2022/04/27 11:43:54;;;;;;;4.20;2.40;;;;;;;20.54;23.84;100698.81;107726;1270;136975;-79
2022/04/27 11:46:38;;;;;;;4.40;2.60;;;;;;;20.18;23.97;100695.83;107000;1270;108608;-78
2022/04/27 11:49:12;;;;;;;4.70;2.40;;;;;;;19.93;24.38;100702.95;107154;1271;137170;-78
2022/04/27 11:51:48;;;;;;;3.20;2.10;;;;;;;19.77;23.94;100700.44;106323;1271;95101;-80
2022/04/27 11:54:33;;;;;;;3.40;2.00;;;;;;;19.63;24.25;100703.64;106323;1270;95130;-80
2022/04/27 11:57:08;;;;;;;3.00;2.40;;;;;;;19.60;24.41;100702.57;106209;1270;136805;-80
2022/04/27 11:59:52;;;;;;;2.90;2.00;;;;;;;19.59;24.66;100698.43;107748;1270;108978;-80
2022/04/27 12:02:26;;;;;;;6.90;3.40;;;;;;;19.52;24.36;100694.27;106727;1270;137490;-80
2022/04/27 12:05:00;;;;;;;8.80;5.30;;;;;;;19.38;25.10;100696.55;107817;1270;94698;-80
2022/04/27 12:07:38;;;;;;;9.50;3.30;;;;;;;19.32;25.38;100699.86;107664;1270;136943;-79
2022/04/27 12:10:14;;;;;;;9.00;3.20;;;;;;;19.34;25.26;100701.52;106992;1270;108842;-81
2022/04/27 12:12:48;;;;;;;4.40;2.40;;;;;;;19.41;25.50;100696.33;106727;1270;139036;-79
2022/04/27 12:15:29;;;;;;;6.80;3.10;;;;;;;19.42;25.35;100691.85;107779;1270;106764;-80